createdAt,value
2018-07-28T00:02:08.134Z,9.00
2018-07-28T00:04:36.173Z,8.70
2018-07-28T00:07:04.974Z,9.10
2018-07-28T00:09:33.000Z,9.23
2018-07-28T00:12:01.018Z,9.20
2018-07-28T00:14:29.076Z,8.67
2018-07-28T00:16:57.142Z,9.43
2018-07-28T00:19:25.162Z,9.67
2018-07-28T00:21:53.337Z,7.70
2018-07-28T00:24:21.362Z,8.27
2018-07-28T00:26:49.385Z,9.17
2018-07-28T00:29:17.404Z,9.85
2018-07-28T00:31:45.436Z,8.47
2018-07-28T00:34:13.459Z,8.88
2018-07-28T00:36:41.500Z,8.10
2018-07-28T00:39:11.733Z,8.50
2018-07-28T00:41:39.766Z,8.53
2018-07-28T00:44:07.840Z,9.10
2018-07-28T00:46:36.504Z,8.47
2018-07-28T00:49:05.005Z,8.13
2018-07-28T00:51:33.061Z,8.90
2018-07-28T00:54:01.101Z,8.23
2018-07-28T00:56:29.123Z,8.20
2018-07-28T00:58:57.229Z,8.80
2018-07-28T01:01:25.281Z,8.30
2018-07-28T01:03:53.346Z,8.90
2018-07-28T01:06:21.456Z,8.80
2018-07-28T01:08:49.520Z,8.57
2018-07-28T01:11:17.541Z,8.58
2018-07-28T01:13:45.577Z,9.17
2018-07-28T01:16:13.604Z,8.57
2018-07-28T01:18:41.633Z,7.70
2018-07-28T01:21:09.664Z,7.78
2018-07-28T01:23:38.701Z,8.53
2018-07-28T01:26:06.721Z,8.90
2018-07-28T01:28:34.739Z,8.57
2018-07-28T01:31:02.807Z,7.87
2018-07-28T01:33:30.825Z,8.60
2018-07-28T01:35:58.856Z,8.30
2018-07-28T01:38:26.864Z,7.80
2018-07-28T01:40:54.884Z,8.47
2018-07-28T01:43:22.905Z,8.40
2018-07-28T01:45:50.921Z,9.23
2018-07-28T01:48:19.246Z,8.27
2018-07-28T01:50:47.262Z,8.30
2018-07-28T01:53:15.285Z,8.60
2018-07-28T01:55:43.315Z,9.10
2018-07-28T01:58:11.340Z,8.58
2018-07-28T02:00:39.377Z,9.20
2018-07-28T02:03:07.403Z,8.50
2018-07-28T02:05:35.421Z,8.03
2018-07-28T02:08:03.440Z,8.10
2018-07-28T02:10:31.452Z,7.77
2018-07-28T02:12:59.488Z,7.87
2018-07-28T02:15:27.512Z,8.23
2018-07-28T02:17:55.529Z,8.63
2018-07-28T02:20:23.560Z,8.50
2018-07-28T02:22:51.640Z,9.10
2018-07-28T02:25:19.693Z,8.67
2018-07-28T02:27:47.716Z,7.97
2018-07-28T02:30:15.750Z,8.73
2018-07-28T02:32:43.765Z,7.13
2018-07-28T02:35:11.794Z,7.67
2018-07-28T02:37:39.817Z,8.03
2018-07-28T02:40:07.883Z,8.80
2018-07-28T02:42:35.916Z,9.30
2018-07-28T02:45:05.344Z,8.78
2018-07-28T02:47:33.349Z,8.70
2018-07-28T02:50:01.543Z,7.63
2018-07-28T02:52:29.569Z,7.80
2018-07-28T02:54:57.625Z,8.20
2018-07-28T02:57:25.654Z,8.70
2018-07-28T02:59:53.669Z,7.97
2018-07-28T03:02:21.689Z,8.23
2018-07-28T03:04:49.867Z,8.47
2018-07-28T03:07:17.884Z,8.07
2018-07-28T03:09:45.903Z,7.67
2018-07-28T03:12:13.929Z,8.60
2018-07-28T03:14:41.961Z,8.40
2018-07-28T03:17:09.989Z,8.23
2018-07-28T03:19:38.021Z,8.00
2018-07-28T03:22:06.413Z,7.73
2018-07-28T03:24:34.426Z,8.30
2018-07-28T03:27:02.436Z,7.77
2018-07-28T03:29:30.539Z,8.77
2018-07-28T03:31:58.535Z,7.10
2018-07-28T03:34:26.564Z,8.00
2018-07-28T03:36:54.677Z,8.47
2018-07-28T03:39:22.667Z,8.07
2018-07-28T03:41:51.099Z,8.40
2018-07-28T03:44:19.109Z,8.27
2018-07-28T03:46:47.136Z,8.33
2018-07-28T03:49:15.212Z,8.40
2018-07-28T03:51:43.161Z,9.23
2018-07-28T03:54:11.174Z,8.20
2018-07-28T03:56:39.293Z,11.50
2018-07-28T03:59:07.740Z,9.50
2018-07-28T04:01:35.842Z,8.27
2018-07-28T04:04:04.911Z,9.25
2018-07-28T04:06:32.960Z,9.57
2018-07-28T04:09:00.985Z,9.63
2018-07-28T04:11:29.011Z,8.90
2018-07-28T04:13:57.032Z,9.20
2018-07-28T04:16:25.041Z,9.13
2018-07-28T04:18:53.069Z,8.27
2018-07-28T04:21:21.092Z,10.20
2018-07-28T04:23:49.111Z,8.80
2018-07-28T04:26:17.133Z,8.35
2018-07-28T04:28:45.154Z,8.43
2018-07-28T04:31:13.181Z,8.85
2018-07-28T04:33:41.185Z,8.60
2018-07-28T04:36:09.218Z,8.10
2018-07-28T04:38:37.228Z,8.83
2018-07-28T04:41:06.242Z,9.13
2018-07-28T04:43:34.254Z,8.30
2018-07-28T04:46:02.440Z,8.13
2018-07-28T04:48:30.458Z,9.87
2018-07-28T04:50:58.476Z,9.03
2018-07-28T04:53:26.509Z,8.37
2018-07-28T04:55:54.521Z,8.97
2018-07-28T04:58:22.584Z,8.77
2018-07-28T05:00:50.608Z,9.57
2018-07-28T05:03:18.616Z,8.20
2018-07-28T05:05:46.650Z,9.50
2018-07-28T05:08:14.664Z,9.20
2018-07-28T05:10:42.685Z,8.73
2018-07-28T05:13:10.712Z,10.08
2018-07-28T05:15:38.724Z,10.33
2018-07-28T05:18:06.760Z,10.07
2018-07-28T05:20:34.784Z,11.23
2018-07-28T05:23:02.800Z,9.95
2018-07-28T05:25:30.844Z,10.10
2018-07-28T05:27:58.861Z,10.10
2018-07-28T05:30:26.877Z,9.50
2018-07-28T05:32:54.901Z,10.77
2018-07-28T05:35:22.921Z,11.33
2018-07-28T05:37:50.949Z,11.50
2018-07-28T05:40:18.968Z,12.30
2018-07-28T05:42:47.019Z,11.53
2018-07-28T05:45:15.205Z,12.25
2018-07-28T05:47:43.229Z,11.60
2018-07-28T05:50:11.266Z,10.60
2018-07-28T05:52:39.274Z,11.70
2018-07-28T05:55:07.308Z,13.43
2018-07-28T05:57:35.381Z,12.97
2018-07-28T06:00:03.460Z,12.80
2018-07-28T06:02:31.612Z,12.03
2018-07-28T06:04:59.547Z,12.03
2018-07-28T06:07:27.637Z,15.77
2018-07-28T06:09:55.697Z,13.03
2018-07-28T06:12:23.729Z,14.38
2018-07-28T06:14:51.756Z,13.60
2018-07-28T06:17:20.472Z,16.13
2018-07-28T06:19:48.505Z,14.53
2018-07-28T06:22:16.690Z,12.93
2018-07-28T06:24:44.732Z,13.43
2018-07-28T06:27:12.799Z,16.37
2018-07-28T06:29:40.813Z,11.73
2018-07-28T06:32:09.193Z,15.67
2018-07-28T06:34:37.225Z,12.13
2018-07-28T06:37:05.413Z,12.60
2018-07-28T06:39:33.528Z,12.50
2018-07-28T06:42:01.533Z,13.87
2018-07-28T06:44:29.573Z,11.67
2018-07-28T06:46:57.619Z,12.53
2018-07-28T06:49:25.742Z,11.20
2018-07-28T06:51:53.909Z,10.07
2018-07-28T06:54:21.948Z,11.30
2018-07-28T06:56:49.988Z,10.70
2018-07-28T06:59:18.040Z,11.67
2018-07-28T07:01:46.113Z,11.10
2018-07-28T07:04:14.277Z,11.30
2018-07-28T07:06:42.314Z,11.65
2018-07-28T07:09:11.769Z,12.33
2018-07-28T07:11:40.875Z,13.68
2018-07-28T07:14:08.841Z,13.77
2018-07-28T07:16:36.897Z,13.30
2018-07-28T07:19:05.017Z,15.28
2018-07-28T07:21:33.193Z,14.17
2018-07-28T07:24:01.238Z,15.87
2018-07-28T07:26:29.292Z,14.80
2018-07-28T07:28:57.326Z,15.07
2018-07-28T07:31:25.379Z,16.20
2018-07-28T07:33:53.414Z,16.53
2018-07-28T07:36:21.461Z,12.67
2018-07-28T07:38:49.501Z,13.00
2018-07-28T07:41:17.792Z,11.47
2018-07-28T07:43:46.062Z,11.97
2018-07-28T07:46:14.098Z,11.40
2018-07-28T07:48:42.215Z,12.50
2018-07-28T07:51:10.269Z,13.00
2018-07-28T07:53:38.298Z,10.60
2018-07-28T07:56:06.338Z,10.13
2018-07-28T07:58:34.586Z,10.63
2018-07-28T08:01:02.604Z,10.93
2018-07-28T08:03:30.648Z,9.23
2018-07-28T08:05:58.685Z,10.90
2018-07-28T08:08:26.725Z,8.87
2018-07-28T08:10:54.754Z,8.83
2018-07-28T08:13:22.868Z,8.90
2018-07-28T08:15:52.688Z,8.77
2018-07-28T08:18:20.722Z,14.70
2018-07-28T08:20:48.747Z,10.50
2018-07-28T08:23:17.043Z,8.88
2018-07-28T08:25:45.126Z,7.60
2018-07-28T08:28:13.221Z,9.00
2018-07-28T08:30:41.246Z,9.07
2018-07-28T08:33:09.269Z,8.97
2018-07-28T08:35:37.307Z,8.60
2018-07-28T08:38:05.345Z,8.60
2018-07-28T08:40:33.386Z,8.07
2018-07-28T08:43:01.390Z,7.90
2018-07-28T08:45:29.693Z,8.70
2018-07-28T08:47:57.760Z,8.37
2018-07-28T08:50:25.845Z,7.73
2018-07-28T08:52:53.884Z,8.07
2018-07-28T08:55:22.012Z,7.92
2018-07-28T08:57:50.083Z,7.07
2018-07-28T09:00:18.120Z,7.17
2018-07-28T09:02:46.141Z,6.60
2018-07-28T09:05:14.309Z,7.40
2018-07-28T09:07:42.333Z,6.87
2018-07-28T09:10:10.571Z,6.55
2018-07-28T09:12:38.577Z,7.28
2018-07-28T09:15:07.669Z,6.93
2018-07-28T09:17:35.713Z,7.28
2018-07-28T09:20:03.753Z,5.97
2018-07-28T09:22:31.826Z,6.30
2018-07-28T09:24:59.801Z,7.10
2018-07-28T09:27:27.828Z,6.47
2018-07-28T09:29:55.865Z,6.97
2018-07-28T09:32:23.906Z,6.07
2018-07-28T09:34:52.025Z,6.60
2018-07-28T09:37:20.078Z,5.67
2018-07-28T09:39:48.114Z,6.07
2018-07-28T09:42:16.305Z,5.87
2018-07-28T09:44:44.333Z,5.63
2018-07-28T09:47:12.362Z,5.62
2018-07-28T09:49:40.381Z,5.03
2018-07-28T09:52:08.420Z,6.03
2018-07-28T09:54:37.085Z,5.03
2018-07-28T09:57:05.136Z,5.70
2018-07-28T09:59:33.170Z,5.10
2018-07-28T10:02:01.192Z,6.40
2018-07-28T10:04:29.245Z,6.13
2018-07-28T10:06:57.280Z,5.60
2018-07-28T10:09:25.310Z,6.20
2018-07-28T10:11:53.333Z,7.00
2018-07-28T10:14:21.409Z,6.92
2018-07-28T10:16:49.457Z,6.03
2018-07-28T10:19:17.489Z,7.37
2018-07-28T10:21:45.700Z,7.20
2018-07-28T10:24:13.736Z,7.75
2018-07-28T10:26:41.786Z,6.93
2018-07-28T10:29:09.844Z,6.47
2018-07-28T10:31:37.865Z,8.87
2018-07-28T10:34:05.936Z,7.83
2018-07-28T10:36:33.998Z,7.03
2018-07-28T10:39:02.032Z,8.33
2018-07-28T10:41:30.060Z,6.73
2018-07-28T10:43:58.089Z,8.13
2018-07-28T10:46:26.124Z,10.43
2018-07-28T10:48:54.132Z,8.93
2018-07-28T10:51:22.154Z,8.33
2018-07-28T10:53:50.173Z,7.73
2018-07-28T10:56:18.186Z,7.92
2018-07-28T10:58:46.260Z,6.77
2018-07-28T11:01:14.289Z,7.45
2018-07-28T11:03:46.332Z,11.73
2018-07-28T11:06:14.357Z,9.33
2018-07-28T11:08:42.408Z,8.47
2018-07-28T11:11:10.441Z,9.13
2018-07-28T11:16:05.257Z,10.37
2018-07-28T11:18:33.442Z,9.00
2018-07-28T11:21:01.600Z,8.20
2018-07-28T11:23:40.860Z,7.90
2018-07-28T11:26:08.951Z,9.43
2018-07-28T11:28:36.929Z,9.27
2018-07-28T11:31:04.981Z,9.27
2018-07-28T11:33:44.402Z,9.40
2018-07-28T11:36:23.786Z,10.00
2018-07-28T11:39:03.237Z,7.77
2018-07-28T11:43:48.583Z,4.83
2018-07-28T11:46:16.613Z,5.17
2018-07-28T11:48:44.629Z,6.87
2018-07-28T11:51:12.816Z,5.47
2018-07-28T11:53:40.948Z,5.73
2018-07-28T11:56:08.964Z,4.00
2018-07-28T11:58:36.990Z,3.67
2018-07-28T12:01:05.280Z,4.67
2018-07-28T12:03:33.600Z,4.77
2018-07-28T12:06:01.788Z,5.00
2018-07-28T12:08:29.816Z,5.80
2018-07-28T12:10:57.856Z,6.80
2018-07-28T12:13:25.948Z,6.73
2018-07-28T12:15:53.975Z,7.43
2018-07-28T12:18:22.159Z,7.53
2018-07-28T12:20:50.168Z,6.67
2018-07-28T12:23:18.192Z,7.43
2018-07-28T12:25:46.214Z,7.63
2018-07-28T12:28:14.402Z,7.37
2018-07-28T12:30:42.422Z,7.90
2018-07-28T12:33:10.465Z,9.20
2018-07-28T12:35:38.497Z,7.70
2018-07-28T12:38:06.556Z,9.73
2018-07-28T12:40:35.042Z,10.93
2018-07-28T12:43:03.069Z,10.63
2018-07-28T12:45:31.110Z,11.33
2018-07-28T12:47:59.221Z,10.10
2018-07-28T12:50:27.248Z,9.43
2018-07-28T12:52:55.273Z,8.07
2018-07-28T12:55:23.373Z,8.97
2018-07-28T12:57:51.329Z,10.43
2018-07-28T13:00:19.546Z,10.20
2018-07-28T13:02:47.572Z,8.63
2018-07-28T13:05:15.587Z,8.27
2018-07-28T13:07:43.600Z,5.57
2018-07-28T13:10:11.645Z,6.30
2018-07-28T13:12:39.646Z,6.23
2018-07-28T13:15:07.702Z,6.00
2018-07-28T13:17:35.718Z,5.40
2018-07-28T13:20:03.776Z,5.93
2018-07-28T13:22:31.829Z,6.20
2018-07-28T13:24:59.866Z,5.40
2018-07-28T13:27:27.907Z,5.97
2018-07-28T13:29:56.030Z,5.67
2018-07-28T13:32:23.996Z,4.50
2018-07-28T13:34:52.212Z,4.87
2018-07-28T13:37:20.240Z,4.70
2018-07-28T13:39:48.265Z,4.57
2018-07-28T13:42:16.295Z,5.23
2018-07-28T13:44:44.358Z,4.55
2018-07-28T13:47:12.387Z,4.73
2018-07-28T13:49:40.445Z,5.40
2018-07-28T13:52:08.469Z,4.60
2018-07-28T13:54:36.897Z,5.47
2018-07-28T13:57:05.137Z,4.77
2018-07-28T13:59:33.166Z,5.20
2018-07-28T14:02:01.248Z,4.53
2018-07-28T14:04:29.389Z,4.53
2018-07-28T14:06:57.500Z,4.53
2018-07-28T14:09:25.540Z,4.33
2018-07-28T14:11:53.565Z,5.40
2018-07-28T14:14:21.588Z,4.40
2018-07-28T14:16:49.781Z,5.30
2018-07-28T14:19:17.811Z,4.20
2018-07-28T14:21:45.835Z,4.93
2018-07-28T14:24:13.873Z,4.05
2018-07-28T14:26:41.909Z,4.80
2018-07-28T14:29:09.957Z,5.33
2018-07-28T14:31:37.992Z,5.22
2018-07-28T14:34:06.281Z,5.10
2018-07-28T14:36:34.308Z,5.17
2018-07-28T14:39:02.357Z,6.17
2018-07-28T14:41:30.409Z,4.53
2018-07-28T14:43:58.437Z,5.40
2018-07-28T14:46:26.469Z,5.33
2018-07-28T14:48:54.685Z,6.50
2018-07-28T14:51:22.718Z,4.83
2018-07-28T14:53:57.276Z,5.90
2018-07-28T14:56:25.606Z,5.73
2018-07-28T14:58:53.649Z,5.73
2018-07-28T15:01:21.718Z,6.53
2018-07-28T15:03:49.692Z,5.73
2018-07-28T15:06:17.714Z,7.70
2018-07-28T15:08:45.733Z,7.70
2018-07-28T15:11:13.778Z,8.13
2018-07-28T15:13:41.804Z,9.17
2018-07-28T15:16:09.852Z,8.73
2018-07-28T15:18:38.348Z,7.77
2018-07-28T15:21:06.452Z,10.70
2018-07-28T15:23:34.482Z,10.63
2018-07-28T15:26:02.938Z,11.63
2018-07-28T15:28:30.983Z,9.57
2018-07-28T15:30:59.007Z,10.00
2018-07-28T15:33:27.100Z,11.53
2018-07-28T15:35:55.198Z,11.43
2018-07-28T15:38:23.277Z,11.00
2018-07-28T15:40:51.308Z,10.57
2018-07-28T15:43:19.353Z,11.12
2018-07-28T15:45:47.401Z,10.60
2018-07-28T15:48:15.680Z,11.43
2018-07-28T15:50:43.720Z,9.50
2018-07-28T15:53:11.756Z,10.32
2018-07-28T15:55:39.781Z,9.43
2018-07-28T16:00:42.227Z,10.43
2018-07-28T16:03:10.287Z,10.28
2018-07-28T16:05:38.889Z,11.40
2018-07-28T16:08:06.998Z,9.80
2018-07-28T16:10:35.042Z,10.33
2018-07-28T16:13:03.081Z,8.83
2018-07-28T16:15:31.116Z,10.87
2018-07-28T16:17:59.152Z,9.67
2018-07-28T16:20:27.192Z,9.30
2018-07-28T16:22:55.405Z,10.37
2018-07-28T16:25:23.434Z,9.67
2018-07-28T16:27:51.570Z,8.43
2018-07-28T16:30:19.601Z,10.43
2018-07-28T16:32:47.634Z,10.27
2018-07-28T16:35:15.687Z,10.47
2018-07-28T16:37:43.763Z,10.67
2018-07-28T16:40:12.017Z,11.00
2018-07-28T16:42:40.038Z,10.97
2018-07-28T16:45:08.068Z,10.43
2018-07-28T16:47:36.136Z,9.93
2018-07-28T16:50:04.965Z,9.80
2018-07-28T16:52:32.989Z,9.17
2018-07-28T16:55:01.256Z,9.80
2018-07-28T16:57:29.521Z,9.37
2018-07-28T16:59:57.555Z,9.93
2018-07-28T17:02:25.592Z,11.57
2018-07-28T17:04:53.729Z,11.00
2018-07-28T17:07:21.924Z,9.20
2018-07-28T17:09:50.017Z,8.60
2018-07-28T17:12:18.396Z,14.03
2018-07-28T17:14:46.444Z,10.30
2018-07-28T17:17:14.689Z,11.60
2018-07-28T17:19:42.723Z,9.37
2018-07-28T17:22:10.746Z,8.13
2018-07-28T17:24:39.785Z,8.17
2018-07-28T17:27:07.832Z,10.43
2018-07-28T17:29:35.878Z,10.83
2018-07-28T17:32:04.453Z,11.43
2018-07-28T17:34:32.486Z,10.27
2018-07-28T17:37:00.611Z,9.60
2018-07-28T17:39:28.658Z,10.07
2018-07-28T17:41:56.690Z,9.37
2018-07-28T17:44:24.737Z,13.10
2018-07-28T17:46:52.769Z,10.33
2018-07-28T17:49:20.812Z,10.07
2018-07-28T17:51:49.049Z,11.40
2018-07-28T17:54:17.389Z,6.85
2018-07-28T17:56:45.437Z,6.83
2018-07-28T17:59:13.635Z,9.38
2018-07-28T18:01:41.674Z,9.33
2018-07-28T18:04:09.792Z,10.93
2018-07-28T18:06:37.820Z,10.27
2018-07-28T18:09:07.556Z,12.80
2018-07-28T18:11:35.629Z,8.20
2018-07-28T18:14:03.916Z,10.00
2018-07-28T18:16:31.994Z,11.00
2018-07-28T18:19:00.036Z,11.80
2018-07-28T18:21:28.368Z,15.27
2018-07-28T18:23:56.573Z,14.10
2018-07-28T18:26:24.535Z,12.20
2018-07-28T18:28:52.560Z,8.33
2018-07-28T18:31:20.580Z,8.30
2018-07-28T18:33:48.633Z,7.80
2018-07-28T18:36:16.763Z,10.50
2018-07-28T18:38:44.835Z,7.77
2018-07-28T18:41:12.921Z,7.23
2018-07-28T18:43:40.940Z,11.77
2018-07-28T18:46:09.010Z,8.03
2018-07-28T18:48:37.050Z,11.70
2018-07-28T18:51:05.109Z,9.20
2018-07-28T18:53:33.148Z,8.83
2018-07-28T18:56:01.200Z,12.97
2018-07-28T18:58:29.393Z,9.47
2018-07-28T19:00:57.429Z,8.90
2018-07-28T19:03:25.531Z,7.10
2018-07-28T19:05:53.933Z,7.67
2018-07-28T19:08:21.987Z,6.17
2018-07-28T19:10:51.589Z,9.30
2018-07-28T19:13:24.857Z,10.75
2018-07-28T19:15:52.877Z,11.40
2018-07-28T19:18:26.384Z,7.03
2018-07-28T19:20:54.457Z,10.37
2018-07-28T19:23:27.926Z,10.08
2018-07-28T19:25:55.970Z,9.60
2018-07-28T19:28:29.280Z,11.57
2018-07-28T19:30:57.364Z,8.03
2018-07-28T19:33:25.347Z,8.23
2018-07-28T19:35:59.046Z,8.20
2018-07-28T19:38:27.170Z,8.00
2018-07-28T19:40:55.200Z,10.03
2018-07-28T19:43:23.241Z,9.85
2018-07-28T19:45:51.259Z,5.93
2018-07-28T19:48:19.393Z,9.35
2018-07-28T19:50:47.417Z,8.67
2018-07-28T19:53:15.428Z,8.93
2018-07-28T19:55:43.452Z,7.40
2018-07-28T19:58:17.756Z,11.03
2018-07-28T20:00:45.781Z,9.07
2018-07-28T20:03:13.795Z,9.30
2018-07-28T20:05:41.821Z,10.37
2018-07-28T20:08:09.841Z,8.80
2018-07-28T20:10:38.311Z,6.60
2018-07-28T20:13:06.349Z,6.67
2018-07-28T20:15:34.437Z,11.53
2018-07-28T20:18:02.467Z,8.53
2018-07-28T20:20:30.486Z,10.60
2018-07-28T20:22:58.510Z,7.93
2018-07-28T20:25:26.527Z,9.63
2018-07-28T20:27:54.535Z,6.77
2018-07-28T20:30:22.637Z,13.70
2018-07-28T20:32:50.882Z,11.03
2018-07-28T20:35:18.944Z,8.63
2018-07-28T20:37:46.964Z,8.43
2018-07-28T20:40:15.371Z,12.20
2018-07-28T20:42:43.703Z,6.60
2018-07-28T20:45:11.876Z,7.10
2018-07-28T20:47:40.175Z,6.73
2018-07-28T20:50:08.356Z,6.77
2018-07-28T20:52:36.653Z,6.33
2018-07-28T20:55:05.025Z,10.57
2018-07-28T20:57:33.154Z,9.53
2018-07-28T21:00:01.180Z,7.37
2018-07-28T21:02:29.212Z,6.13
2018-07-28T21:04:57.256Z,6.70
2018-07-28T21:07:25.289Z,7.30
2018-07-28T21:09:53.436Z,9.87
2018-07-28T21:12:21.692Z,8.25
2018-07-28T21:14:49.730Z,8.90
2018-07-28T21:17:18.059Z,11.73
2018-07-28T21:19:46.140Z,14.87
2018-07-28T21:22:14.168Z,11.43
2018-07-28T21:24:42.210Z,7.53
2018-07-28T21:27:10.284Z,5.83
2018-07-28T21:29:38.320Z,7.83
2018-07-28T21:32:06.761Z,8.43
2018-07-28T21:34:34.808Z,13.27
2018-07-28T21:37:02.850Z,9.27
2018-07-28T21:39:30.869Z,8.57
2018-07-28T21:41:59.262Z,9.57
2018-07-28T21:44:27.284Z,8.03
2018-07-28T21:46:55.317Z,8.00
2018-07-28T21:49:23.336Z,9.00
2018-07-28T21:51:51.357Z,7.87
2018-07-28T21:54:19.532Z,8.87
2018-07-28T21:56:47.710Z,11.00
2018-07-28T21:59:15.752Z,10.77
2018-07-28T22:01:44.340Z,10.87
2018-07-28T22:04:17.436Z,8.23
2018-07-28T22:06:45.472Z,8.03
2018-07-28T22:09:13.508Z,9.07
2018-07-28T22:11:41.538Z,6.83
2018-07-28T22:14:09.562Z,8.83
2018-07-28T22:16:37.820Z,5.50
2018-07-28T22:19:05.940Z,5.90
2018-07-28T22:21:33.969Z,6.17
2018-07-28T22:24:02.001Z,7.10
2018-07-28T22:26:30.020Z,6.77
2018-07-28T22:28:58.040Z,7.93
2018-07-28T22:31:26.064Z,7.83
2018-07-28T22:33:54.100Z,5.90
2018-07-28T22:36:22.127Z,7.43
2018-07-28T22:38:50.152Z,5.90
2018-07-28T22:41:18.233Z,5.50
2018-07-28T22:43:46.253Z,4.63
2018-07-28T22:46:14.386Z,5.33
2018-07-28T22:48:42.389Z,5.77
2018-07-28T22:51:10.789Z,6.40
2018-07-28T22:53:38.921Z,8.10
2018-07-28T22:56:06.961Z,7.43
2018-07-28T22:58:34.984Z,8.67
2018-07-28T23:01:02.994Z,8.60
2018-07-28T23:03:31.177Z,9.23
2018-07-28T23:05:59.194Z,9.20
2018-07-28T23:08:27.208Z,6.00
2018-07-28T23:10:55.256Z,7.67
2018-07-28T23:13:23.428Z,9.87
2018-07-28T23:15:51.460Z,8.10
2018-07-28T23:18:19.497Z,7.67
2018-07-28T23:20:47.565Z,7.87
2018-07-28T23:23:15.551Z,4.87
2018-07-28T23:25:43.804Z,4.73
2018-07-28T23:28:18.262Z,4.43
2018-07-28T23:30:46.431Z,5.70
2018-07-28T23:33:14.468Z,7.40
2018-07-28T23:35:42.500Z,5.67
2018-07-28T23:38:10.525Z,6.07
2018-07-28T23:40:38.558Z,4.30
2018-07-28T23:43:06.769Z,5.95
2018-07-28T23:45:34.851Z,6.07
2018-07-28T23:48:02.876Z,5.80
2018-07-28T23:50:30.913Z,6.10
2018-07-28T23:52:58.936Z,6.13
2018-07-28T23:55:26.973Z,6.63
2018-07-28T23:57:55.002Z,5.70
